sensor_id;sensor_type;location;lat;lon;timestamp;pressure;altitude;pressure_sealevel;temperature;humidity
6514;BME280;3290;47.716;9.070;2024-03-23T00:55:41;96440.03;;;10.68;91.22
6514;BME280;3290;47.716;9.070;2024-03-23T00:58:08;96436.81;;;10.54;91.04
6514;BME280;3290;47.716;9.070;2024-03-23T01:00:33;96436.59;;;10.56;91.87
6514;BME280;3290;47.716;9.070;2024-03-23T01:02:59;96441.94;;;10.38;92.15
6514;BME280;3290;47.716;9.070;2024-03-23T01:05:24;96441.41;;;10.59;91.98
6514;BME280;3290;47.716;9.070;2024-03-23T01:07:49;96436.00;;;10.31;92.67
6514;BME280;3290;47.716;9.070;2024-03-23T01:10:15;96435.63;;;10.28;92.76
6514;BME280;3290;47.716;9.070;2024-03-23T01:12:40;96430.41;;;10.28;92.62
6514;BME280;3290;47.716;9.070;2024-03-23T01:15:06;96436.16;;;10.18;94.01
6514;BME280;3290;47.716;9.070;2024-03-23T01:17:31;96425.13;;;10.16;94.20
6514;BME280;3290;47.716;9.070;2024-03-23T01:19:57;96426.78;;;9.99;94.21
6514;BME280;3290;47.716;9.070;2024-03-23T01:22:22;96421.78;;;9.80;96.47
6514;BME280;3290;47.716;9.070;2024-03-23T01:24:47;96414.94;;;9.79;96.44
6514;BME280;3290;47.716;9.070;2024-03-23T01:27:13;96409.00;;;9.72;96.63
6514;BME280;3290;47.716;9.070;2024-03-23T01:29:38;96402.72;;;9.91;96.55
6514;BME280;3290;47.716;9.070;2024-03-23T01:32:04;96411.50;;;10.26;93.64
6514;BME280;3290;47.716;9.070;2024-03-23T01:34:30;96413.19;;;10.20;93.44
6514;BME280;3290;47.716;9.070;2024-03-23T01:36:55;96402.03;;;10.13;95.04
6514;BME280;3290;47.716;9.070;2024-03-23T01:39:20;96407.25;;;10.13;94.65
6514;BME280;3290;47.716;9.070;2024-03-23T01:41:46;96396.38;;;10.39;93.05
6514;BME280;3290;47.716;9.070;2024-03-23T01:44:11;96399.06;;;10.21;94.07
6514;BME280;3290;47.716;9.070;2024-03-23T01:46:39;96385.38;;;9.97;94.81
6514;BME280;3290;47.716;9.070;2024-03-23T01:49:07;96384.53;;;9.67;96.81
6514;BME280;3290;47.716;9.070;2024-03-23T01:51:33;96378.28;;;9.97;95.56
6514;BME280;3290;47.716;9.070;2024-03-23T01:54:00;96370.81;;;10.00;95.97
6514;BME280;3290;47.716;9.070;2024-03-23T01:56:28;96367.53;;;10.16;94.92
6514;BME280;3290;47.716;9.070;2024-03-23T01:58:54;96361.94;;;10.01;95.50
6514;BME280;3290;47.716;9.070;2024-03-23T02:01:19;96361.94;;;10.01;94.95
6514;BME280;3290;47.716;9.070;2024-03-23T02:03:44;96359.59;;;10.11;95.08
6514;BME280;3290;47.716;9.070;2024-03-23T02:06:10;96359.28;;;10.42;93.12
6514;BME280;3290;47.716;9.070;2024-03-23T02:08:35;96356.66;;;10.42;92.04
6514;BME280;3290;47.716;9.070;2024-03-23T02:11:01;96353.59;;;10.45;92.57
6514;BME280;3290;47.716;9.070;2024-03-23T02:13:26;96348.56;;;10.32;92.86
6514;BME280;3290;47.716;9.070;2024-03-23T02:15:52;96336.03;;;10.34;93.59
6514;BME280;3290;47.716;9.070;2024-03-23T02:18:17;96327.03;;;10.53;92.97
6514;BME280;3290;47.716;9.070;2024-03-23T02:20:43;96321.47;;;10.49;93.15
6514;BME280;3290;47.716;9.070;2024-03-23T02:23:15;96321.94;;;10.35;94.09
6514;BME280;3290;47.716;9.070;2024-03-23T02:25:41;96321.81;;;10.41;93.55
6514;BME280;3290;47.716;9.070;2024-03-23T02:28:07;96316.91;;;10.34;94.39
6514;BME280;3290;47.716;9.070;2024-03-23T02:30:32;96309.19;;;10.27;94.68
6514;BME280;3290;47.716;9.070;2024-03-23T02:32:58;96306.88;;;9.97;95.19
6514;BME280;3290;47.716;9.070;2024-03-23T02:35:23;96298.56;;;9.99;95.83
6514;BME280;3290;47.716;9.070;2024-03-23T02:37:48;96289.31;;;9.86;97.50
6514;BME280;3290;47.716;9.070;2024-03-23T02:40:17;96272.69;;;9.80;98.01
6514;BME280;3290;47.716;9.070;2024-03-23T02:42:43;96280.66;;;9.85;97.81
6514;BME280;3290;47.716;9.070;2024-03-23T02:45:08;96274.91;;;10.29;96.07
6514;BME280;3290;47.716;9.070;2024-03-23T02:47:34;96274.97;;;10.79;92.54
6514;BME280;3290;47.716;9.070;2024-03-23T02:50:00;96275.75;;;10.91;92.18
6514;BME280;3290;47.716;9.070;2024-03-23T02:52:25;96274.78;;;10.69;92.00
6514;BME280;3290;47.716;9.070;2024-03-23T02:54:50;96261.09;;;10.67;92.66
6514;BME280;3290;47.716;9.070;2024-03-23T02:57:16;96258.84;;;10.48;93.32
6514;BME280;3290;47.716;9.070;2024-03-23T02:59:41;96261.47;;;10.48;94.09
6514;BME280;3290;47.716;9.070;2024-03-23T03:02:07;96252.31;;;10.62;92.42
6514;BME280;3290;47.716;9.070;2024-03-23T03:04:32;96245.97;;;10.58;92.25
6514;BME280;3290;47.716;9.070;2024-03-23T03:06:58;96259.19;;;10.63;92.10
6514;BME280;3290;47.716;9.070;2024-03-23T03:09:23;96255.78;;;10.51;92.99
6514;BME280;3290;47.716;9.070;2024-03-23T03:11:48;96245.31;;;10.28;94.29
6514;BME280;3290;47.716;9.070;2024-03-23T03:14:14;96244.50;;;10.16;95.83
6514;BME280;3290;47.716;9.070;2024-03-23T03:16:39;96251.44;;;10.34;94.67
6514;BME280;3290;47.716;9.070;2024-03-23T03:19:05;96251.19;;;10.58;93.91
6514;BME280;3290;47.716;9.070;2024-03-23T03:21:31;96261.22;;;10.61;92.68
6514;BME280;3290;47.716;9.070;2024-03-23T03:23:57;96255.19;;;10.60;93.90
6514;BME280;3290;47.716;9.070;2024-03-23T03:26:23;96252.56;;;10.72;92.50
6514;BME280;3290;47.716;9.070;2024-03-23T03:28:50;96252.81;;;10.47;92.87
6514;BME280;3290;47.716;9.070;2024-03-23T03:31:15;96255.56;;;10.30;95.34
6514;BME280;3290;47.716;9.070;2024-03-23T03:33:41;96257.38;;;10.40;94.36
6514;BME280;3290;47.716;9.070;2024-03-23T03:36:07;96262.06;;;10.27;94.65
6514;BME280;3290;47.716;9.070;2024-03-23T03:38:32;96259.22;;;10.17;95.55
6514;BME280;3290;47.716;9.070;2024-03-23T03:41:00;96250.91;;;9.98;96.62
6514;BME280;3290;47.716;9.070;2024-03-23T03:43:25;96261.13;;;10.22;95.21
6514;BME280;3290;47.716;9.070;2024-03-23T03:45:52;96264.66;;;10.50;94.36
6514;BME280;3290;47.716;9.070;2024-03-23T03:48:18;96254.41;;;10.37;94.45
6514;BME280;3290;47.716;9.070;2024-03-23T03:50:43;96247.50;;;10.31;95.81
6514;BME280;3290;47.716;9.070;2024-03-23T03:53:08;96238.84;;;9.97;96.83
6514;BME280;3290;47.716;9.070;2024-03-23T03:55:33;96238.59;;;9.98;96.31
6514;BME280;3290;47.716;9.070;2024-03-23T03:57:59;96231.28;;;10.34;95.76
6514;BME280;3290;47.716;9.070;2024-03-23T04:00:24;96228.22;;;10.37;96.05
6514;BME280;3290;47.716;9.070;2024-03-23T04:02:50;96224.38;;;10.28;95.78
6514;BME280;3290;47.716;9.070;2024-03-23T04:05:16;96221.75;;;10.05;97.76
6514;BME280;3290;47.716;9.070;2024-03-23T04:07:42;96208.56;;;10.00;97.37
6514;BME280;3290;47.716;9.070;2024-03-23T04:10:07;96208.81;;;10.10;97.69
6514;BME280;3290;47.716;9.070;2024-03-23T04:12:34;96201.72;;;10.11;97.71
6514;BME280;3290;47.716;9.070;2024-03-23T04:14:59;96206.41;;;9.98;98.68
6514;BME280;3290;47.716;9.070;2024-03-23T04:17:27;96204.59;;;9.98;98.26
6514;BME280;3290;47.716;9.070;2024-03-23T04:19:57;96192.97;;;10.05;97.90
6514;BME280;3290;47.716;9.070;2024-03-23T04:22:22;96186.56;;;10.36;97.17
6514;BME280;3290;47.716;9.070;2024-03-23T04:24:49;96180.47;;;10.19;96.88
6514;BME280;3290;47.716;9.070;2024-03-23T04:27:15;96185.00;;;10.23;96.81
6514;BME280;3290;47.716;9.070;2024-03-23T04:29:40;96173.19;;;10.60;95.22
6514;BME280;3290;47.716;9.070;2024-03-23T04:32:05;96167.09;;;10.43;95.00
6514;BME280;3290;47.716;9.070;2024-03-23T04:34:31;96161.78;;;10.27;96.45
6514;BME280;3290;47.716;9.070;2024-03-23T04:36:58;96157.00;;;10.24;96.24
6514;BME280;3290;47.716;9.070;2024-03-23T04:39:23;96147.06;;;10.37;95.11
6514;BME280;3290;47.716;9.070;2024-03-23T04:41:49;96145.22;;;10.49;95.32
6514;BME280;3290;47.716;9.070;2024-03-23T04:44:15;96138.09;;;10.22;96.50
6514;BME280;3290;47.716;9.070;2024-03-23T04:46:40;96131.97;;;10.16;96.93
6514;BME280;3290;47.716;9.070;2024-03-23T04:49:05;96127.28;;;10.18;96.96
6514;BME280;3290;47.716;9.070;2024-03-23T04:51:35;96119.38;;;10.13;97.38
6514;BME280;3290;47.716;9.070;2024-03-23T04:54:02;96117.03;;;10.28;97.26
6514;BME280;3290;47.716;9.070;2024-03-23T04:56:28;96113.19;;;10.19;96.47
6514;BME280;3290;47.716;9.070;2024-03-23T04:58:53;96105.59;;;10.06;98.21
6514;BME280;3290;47.716;9.070;2024-03-23T05:01:19;96101.13;;;10.18;98.37
6514;BME280;3290;47.716;9.070;2024-03-23T05:03:44;96105.53;;;10.57;95.60
6514;BME280;3290;47.716;9.070;2024-03-23T05:06:10;96101.16;;;10.46;96.01
6514;BME280;3290;47.716;9.070;2024-03-23T05:08:35;96091.34;;;10.53;96.95
6514;BME280;3290;47.716;9.070;2024-03-23T05:11:00;96097.22;;;10.60;96.32
6514;BME280;3290;47.716;9.070;2024-03-23T05:13:26;96094.69;;;11.09;93.89
6514;BME280;3290;47.716;9.070;2024-03-23T05:15:55;96077.88;;;11.21;93.01
6514;BME280;3290;47.716;9.070;2024-03-23T05:18:21;96072.28;;;11.66;90.08
6514;BME280;3290;47.716;9.070;2024-03-23T05:20:47;96072.78;;;11.63;89.84
6514;BME280;3290;47.716;9.070;2024-03-23T05:23:12;96075.47;;;11.68;88.86
6514;BME280;3290;47.716;9.070;2024-03-23T05:25:37;96073.59;;;11.64;90.08
6514;BME280;3290;47.716;9.070;2024-03-23T05:28:03;96082.63;;;12.58;85.12
6514;BME280;3290;47.716;9.070;2024-03-23T05:30:28;96089.53;;;12.16;89.36
6514;BME280;3290;47.716;9.070;2024-03-23T05:32:54;96099.22;;;12.16;92.10
6514;BME280;3290;47.716;9.070;2024-03-23T05:35:19;96106.69;;;12.24;93.50
6514;BME280;3290;47.716;9.070;2024-03-23T05:37:44;96118.66;;;12.15;93.68
6514;BME280;3290;47.716;9.070;2024-03-23T05:40:11;96140.53;;;12.41;93.69
6514;BME280;3290;47.716;9.070;2024-03-23T05:42:38;96152.97;;;12.51;94.12
6514;BME280;3290;47.716;9.070;2024-03-23T05:45:03;96165.41;;;12.55;92.21
6514;BME280;3290;47.716;9.070;2024-03-23T05:47:31;96170.03;;;12.48;96.23
6514;BME280;3290;47.716;9.070;2024-03-23T05:49:57;96152.97;;;12.30;97.09
6514;BME280;3290;47.716;9.070;2024-03-23T05:52:22;96152.84;;;12.20;98.25
6514;BME280;3290;47.716;9.070;2024-03-23T05:54:50;96169.31;;;12.53;96.05
6514;BME280;3290;47.716;9.070;2024-03-23T05:57:15;96176.06;;;12.28;95.41
6514;BME280;3290;47.716;9.070;2024-03-23T05:59:41;96178.53;;;12.55;95.32
6514;BME280;3290;47.716;9.070;2024-03-23T06:02:06;96178.84;;;12.38;97.43
6514;BME280;3290;47.716;9.070;2024-03-23T06:04:32;96173.66;;;12.42;98.92
6514;BME280;3290;47.716;9.070;2024-03-23T06:06:57;96169.13;;;12.59;100.00
6514;BME280;3290;47.716;9.070;2024-03-23T06:09:23;96168.25;;;12.75;100.00
6514;BME280;3290;47.716;9.070;2024-03-23T06:11:48;96166.69;;;12.74;100.00
6514;BME280;3290;47.716;9.070;2024-03-23T06:14:14;96159.09;;;12.56;100.00
6514;BME280;3290;47.716;9.070;2024-03-23T06:16:39;96173.88;;;12.62;100.00
6514;BME280;3290;47.716;9.070;2024-03-23T06:19:04;96170.78;;;12.65;100.00
6514;BME280;3290;47.716;9.070;2024-03-23T06:21:32;96177.69;;;12.71;100.00
6514;BME280;3290;47.716;9.070;2024-03-23T06:23:57;96183.91;;;12.65;100.00
6514;BME280;3290;47.716;9.070;2024-03-23T06:26:23;96186.19;;;12.40;100.00
6514;BME280;3290;47.716;9.070;2024-03-23T06:28:48;96177.31;;;12.41;100.00
6514;BME280;3290;47.716;9.070;2024-03-23T06:31:14;96195.44;;;12.43;100.00
6514;BME280;3290;47.716;9.070;2024-03-23T06:33:39;96187.34;;;12.28;100.00
6514;BME280;3290;47.716;9.070;2024-03-23T06:36:10;96210.81;;;12.35;100.00
6514;BME280;3290;47.716;9.070;2024-03-23T06:38:37;96213.94;;;12.32;100.00
6514;BME280;3290;47.716;9.070;2024-03-23T06:41:03;96206.56;;;12.50;100.00
6514;BME280;3290;47.716;9.070;2024-03-23T06:43:31;96198.56;;;12.61;100.00
6514;BME280;3290;47.716;9.070;2024-03-23T06:45:57;96192.81;;;12.64;100.00
6514;BME280;3290;47.716;9.070;2024-03-23T06:48:22;96200.66;;;12.59;98.19
6514;BME280;3290;47.716;9.070;2024-03-23T06:50:48;96199.47;;;12.88;95.59
6514;BME280;3290;47.716;9.070;2024-03-23T06:53:14;96215.19;;;12.83;95.96
6514;BME280;3290;47.716;9.070;2024-03-23T06:55:39;96197.94;;;12.76;93.91
6514;BME280;3290;47.716;9.070;2024-03-23T06:58:05;96223.88;;;12.67;92.56
6514;BME280;3290;47.716;9.070;2024-03-23T07:00:31;96214.63;;;12.81;93.10
6514;BME280;3290;47.716;9.070;2024-03-23T07:02:57;96208.56;;;12.80;90.32
6514;BME280;3290;47.716;9.070;2024-03-23T07:05:22;96220.09;;;12.58;91.86
6514;BME280;3290;47.716;9.070;2024-03-23T07:07:48;96205.91;;;12.59;88.90
6514;BME280;3290;47.716;9.070;2024-03-23T07:10:13;96210.94;;;12.82;90.16
6514;BME280;3290;47.716;9.070;2024-03-23T07:12:38;96208.38;;;12.87;90.59
6514;BME280;3290;47.716;9.070;2024-03-23T07:15:04;96200.78;;;12.69;89.16
6514;BME280;3290;47.716;9.070;2024-03-23T07:17:30;96218.75;;;12.77;88.95
6514;BME280;3290;47.716;9.070;2024-03-23T07:19:55;96212.53;;;12.62;89.41
6514;BME280;3290;47.716;9.070;2024-03-23T07:22:21;96228.13;;;12.89;89.59
6514;BME280;3290;47.716;9.070;2024-03-23T07:24:46;96233.69;;;12.93;88.45
6514;BME280;3290;47.716;9.070;2024-03-23T07:27:12;96251.00;;;12.89;89.18
6514;BME280;3290;47.716;9.070;2024-03-23T07:29:37;96256.59;;;12.76;89.31
6514;BME280;3290;47.716;9.070;2024-03-23T07:32:02;96263.38;;;12.72;89.80
6514;BME280;3290;47.716;9.070;2024-03-23T07:34:28;96244.56;;;12.80;92.26
6514;BME280;3290;47.716;9.070;2024-03-23T07:36:53;96251.28;;;12.71;91.80
6514;BME280;3290;47.716;9.070;2024-03-23T07:39:19;96271.34;;;12.61;92.13
6514;BME280;3290;47.716;9.070;2024-03-23T07:41:44;96284.19;;;12.57;92.33
6514;BME280;3290;47.716;9.070;2024-03-23T07:44:10;96283.44;;;12.78;92.34
6514;BME280;3290;47.716;9.070;2024-03-23T07:46:35;96285.81;;;12.79;91.09
6514;BME280;3290;47.716;9.070;2024-03-23T07:49:01;96288.66;;;12.94;91.68
6514;BME280;3290;47.716;9.070;2024-03-23T07:51:26;96293.69;;;13.17;91.25
6514;BME280;3290;47.716;9.070;2024-03-23T07:53:51;96304.72;;;13.14;90.23
6514;BME280;3290;47.716;9.070;2024-03-23T07:56:18;96308.28;;;12.87;90.03
6514;BME280;3290;47.716;9.070;2024-03-23T07:58:45;96310.44;;;13.11;89.38
6514;BME280;3290;47.716;9.070;2024-03-23T08:01:15;96323.38;;;12.96;90.69
6514;BME280;3290;47.716;9.070;2024-03-23T08:03:45;96344.06;;;12.88;92.13
6514;BME280;3290;47.716;9.070;2024-03-23T08:06:15;96338.31;;;12.91;91.15
6514;BME280;3290;47.716;9.070;2024-03-23T08:08:43;96378.72;;;12.85;92.54
6514;BME280;3290;47.716;9.070;2024-03-23T08:11:09;96395.59;;;12.89;93.73
6514;BME280;3290;47.716;9.070;2024-03-23T08:13:35;96414.38;;;12.48;89.11
6514;BME280;3290;47.716;9.070;2024-03-23T08:16:02;96410.81;;;12.10;85.36
6514;BME280;3290;47.716;9.070;2024-03-23T08:18:29;96420.44;;;11.77;84.08
6514;BME280;3290;47.716;9.070;2024-03-23T08:20:57;96448.22;;;11.62;84.64
6514;BME280;3290;47.716;9.070;2024-03-23T08:23:34;96455.41;;;11.44;82.86
6514;BME280;3290;47.716;9.070;2024-03-23T08:26:02;96472.97;;;11.09;85.11
6514;BME280;3290;47.716;9.070;2024-03-23T08:28:28;96475.38;;;11.11;85.62
6514;BME280;3290;47.716;9.070;2024-03-23T08:30:54;96496.66;;;10.80;89.27
6514;BME280;3290;47.716;9.070;2024-03-23T08:33:21;96485.66;;;11.01;89.23
6514;BME280;3290;47.716;9.070;2024-03-23T08:35:59;96488.47;;;10.77;92.15
6514;BME280;3290;47.716;9.070;2024-03-23T08:38:26;96491.22;;;10.41;96.61
6514;BME280;3290;47.716;9.070;2024-03-23T08:43:24;96501.56;;;10.77;98.04
6514;BME280;3290;47.716;9.070;2024-03-23T08:45:50;96510.38;;;10.53;98.25
6514;BME280;3290;47.716;9.070;2024-03-23T08:48:15;96523.13;;;10.49;98.33
6514;BME280;3290;47.716;9.070;2024-03-23T08:50:41;96525.84;;;10.43;96.58
6514;BME280;3290;47.716;9.070;2024-03-23T08:53:06;96541.00;;;10.81;93.80
6514;BME280;3290;47.716;9.070;2024-03-23T08:55:31;96558.91;;;11.07;90.92
6514;BME280;3290;47.716;9.070;2024-03-23T08:57:57;96547.28;;;11.03;89.45
6514;BME280;3290;47.716;9.070;2024-03-23T09:00:22;96550.75;;;11.15;90.64
6514;BME280;3290;47.716;9.070;2024-03-23T09:02:48;96545.09;;;10.89;87.35
6514;BME280;3290;47.716;9.070;2024-03-23T09:05:13;96545.59;;;10.97;88.04
6514;BME280;3290;47.716;9.070;2024-03-23T09:07:38;96545.81;;;10.96;87.29
6514;BME280;3290;47.716;9.070;2024-03-23T09:10:04;96547.81;;;10.82;85.21
6514;BME280;3290;47.716;9.070;2024-03-23T09:12:30;96553.44;;;10.97;84.24
6514;BME280;3290;47.716;9.070;2024-03-23T09:14:55;96559.97;;;10.66;81.93
6514;BME280;3290;47.716;9.070;2024-03-23T09:17:20;96573.00;;;10.83;81.50
6514;BME280;3290;47.716;9.070;2024-03-23T09:19:46;96572.53;;;10.86;81.53
6514;BME280;3290;47.716;9.070;2024-03-23T09:22:11;96571.09;;;11.02;82.78
6514;BME280;3290;47.716;9.070;2024-03-23T09:24:36;96571.53;;;10.99;81.82
6514;BME280;3290;47.716;9.070;2024-03-23T09:27:03;96573.72;;;10.90;80.44
6514;BME280;3290;47.716;9.070;2024-03-23T09:29:29;96569.13;;;10.86;81.18
6514;BME280;3290;47.716;9.070;2024-03-23T09:31:54;96572.19;;;11.23;79.52
6514;BME280;3290;47.716;9.070;2024-03-23T09:34:19;96588.94;;;11.11;79.16
6514;BME280;3290;47.716;9.070;2024-03-23T09:36:45;96585.66;;;11.27;78.73
6514;BME280;3290;47.716;9.070;2024-03-23T09:39:10;96597.13;;;11.26;79.22
6514;BME280;3290;47.716;9.070;2024-03-23T09:41:36;96613.56;;;11.33;79.48
6514;BME280;3290;47.716;9.070;2024-03-23T09:44:01;96613.66;;;11.26;77.54
6514;BME280;3290;47.716;9.070;2024-03-23T09:46:27;96626.38;;;11.00;79.93
6514;BME280;3290;47.716;9.070;2024-03-23T09:48:55;96602.75;;;10.89;77.26
6514;BME280;3290;47.716;9.070;2024-03-23T09:51:21;96619.91;;;11.03;76.10
6514;BME280;3290;47.716;9.070;2024-03-23T09:53:46;96621.13;;;11.00;74.92
6514;BME280;3290;47.716;9.070;2024-03-23T09:56:12;96624.75;;;11.40;72.94
6514;BME280;3290;47.716;9.070;2024-03-23T09:58:37;96634.06;;;11.24;73.04
6514;BME280;3290;47.716;9.070;2024-03-23T10:01:03;96633.19;;;11.30;71.91
6514;BME280;3290;47.716;9.070;2024-03-23T10:03:29;96634.63;;;11.56;70.84
6514;BME280;3290;47.716;9.070;2024-03-23T10:06:01;96645.56;;;11.53;73.29
6514;BME280;3290;47.716;9.070;2024-03-23T10:08:28;96629.22;;;11.39;72.34
6514;BME280;3290;47.716;9.070;2024-03-23T10:10:54;96623.09;;;11.68;73.23
6514;BME280;3290;47.716;9.070;2024-03-23T10:13:26;96617.03;;;12.01;72.05
6514;BME280;3290;47.716;9.070;2024-03-23T10:15:56;96617.13;;;11.95;69.77
6514;BME280;3290;47.716;9.070;2024-03-23T10:18:23;96617.84;;;11.91;70.56
6514;BME280;3290;47.716;9.070;2024-03-23T10:23:32;96611.88;;;12.06;70.26
6514;BME280;3290;47.716;9.070;2024-03-23T10:29:02;96602.75;;;12.87;68.72
6514;BME280;3290;47.716;9.070;2024-03-23T10:31:33;96613.13;;;12.54;69.27
6514;BME280;3290;47.716;9.070;2024-03-23T10:34:01;96618.25;;;12.22;67.62
6514;BME280;3290;47.716;9.070;2024-03-23T10:36:26;96629.13;;;11.91;61.74
6514;BME280;3290;47.716;9.070;2024-03-23T10:38:52;96633.41;;;12.31;62.50
6514;BME280;3290;47.716;9.070;2024-03-23T10:41:18;96623.66;;;12.04;60.44
6514;BME280;3290;47.716;9.070;2024-03-23T10:43:49;96633.00;;;12.11;59.34
6514;BME280;3290;47.716;9.070;2024-03-23T10:46:14;96642.50;;;12.01;58.43
6514;BME280;3290;47.716;9.070;2024-03-23T10:48:40;96627.97;;;11.98;59.96
6514;BME280;3290;47.716;9.070;2024-03-23T10:51:07;96634.13;;;12.15;60.60
6514;BME280;3290;47.716;9.070;2024-03-23T10:53:33;96629.38;;;12.01;62.15
6514;BME280;3290;47.716;9.070;2024-03-23T10:56:00;96634.38;;;12.02;62.44
6514;BME280;3290;47.716;9.070;2024-03-23T10:58:46;96622.09;;;11.92;61.38
6514;BME280;3290;47.716;9.070;2024-03-23T11:01:13;96628.34;;;11.79;60.20
6514;BME280;3290;47.716;9.070;2024-03-23T11:03:40;96622.03;;;12.14;61.25
6514;BME280;3290;47.716;9.070;2024-03-23T11:06:09;96623.34;;;12.39;60.22
6514;BME280;3290;47.716;9.070;2024-03-23T11:08:39;96624.31;;;12.61;59.65
6514;BME280;3290;47.716;9.070;2024-03-23T11:11:18;96619.53;;;12.58;59.78
6514;BME280;3290;47.716;9.070;2024-03-23T11:13:45;96619.31;;;13.31;59.48
6514;BME280;3290;47.716;9.070;2024-03-23T11:18:39;96606.91;;;14.13;57.41
6514;BME280;3290;47.716;9.070;2024-03-23T11:21:06;96596.81;;;14.48;55.21
6514;BME280;3290;47.716;9.070;2024-03-23T11:23:32;96608.63;;;14.24;54.67
6514;BME280;3290;47.716;9.070;2024-03-23T11:25:57;96607.19;;;13.79;55.10
6514;BME280;3290;47.716;9.070;2024-03-23T11:28:22;96606.00;;;13.21;51.71
6514;BME280;3290;47.716;9.070;2024-03-23T11:30:48;96603.22;;;13.98;52.62
6514;BME280;3290;47.716;9.070;2024-03-23T11:33:13;96590.22;;;13.70;53.87
6514;BME280;3290;47.716;9.070;2024-03-23T11:35:40;96579.59;;;14.19;49.58
6514;BME280;3290;47.716;9.070;2024-03-23T11:40:42;96592.88;;;13.92;46.71
6514;BME280;3290;47.716;9.070;2024-03-23T11:48:10;96583.66;;;14.74;42.18
6514;BME280;3290;47.716;9.070;2024-03-23T11:50:47;96588.34;;;14.03;44.08
6514;BME280;3290;47.716;9.070;2024-03-23T11:53:15;96586.19;;;13.84;48.53
6514;BME280;3290;47.716;9.070;2024-03-23T11:55:55;96585.19;;;13.69;48.14
6514;BME280;3290;47.716;9.070;2024-03-23T11:58:24;96598.00;;;13.00;47.66
6514;BME280;3290;47.716;9.070;2024-03-23T12:00:57;96578.34;;;14.05;45.69
6514;BME280;3290;47.716;9.070;2024-03-23T12:03:23;96582.16;;;14.36;46.00
6514;BME280;3290;47.716;9.070;2024-03-23T12:05:53;96581.47;;;14.02;47.86
6514;BME280;3290;47.716;9.070;2024-03-23T12:10:53;96604.56;;;13.30;49.94
6514;BME280;3290;47.716;9.070;2024-03-23T12:13:29;96580.50;;;13.55;49.98
6514;BME280;3290;47.716;9.070;2024-03-23T12:15:54;96588.63;;;13.20;48.76
6514;BME280;3290;47.716;9.070;2024-03-23T12:18:23;96581.63;;;13.42;50.71
6514;BME280;3290;47.716;9.070;2024-03-23T12:20:49;96572.03;;;13.36;48.93
6514;BME280;3290;47.716;9.070;2024-03-23T12:23:15;96561.28;;;13.92;48.43
6514;BME280;3290;47.716;9.070;2024-03-23T12:25:40;96566.84;;;14.11;46.81
6514;BME280;3290;47.716;9.070;2024-03-23T12:28:07;96592.44;;;13.62;47.10
6514;BME280;3290;47.716;9.070;2024-03-23T12:30:40;96586.75;;;12.88;49.76
6514;BME280;3290;47.716;9.070;2024-03-23T12:33:06;96586.84;;;13.10;50.35
6514;BME280;3290;47.716;9.070;2024-03-23T12:35:31;96602.91;;;12.69;52.75
6514;BME280;3290;47.716;9.070;2024-03-23T12:37:57;96593.84;;;12.88;51.82
6514;BME280;3290;47.716;9.070;2024-03-23T12:40:23;96616.94;;;13.46;51.38
6514;BME280;3290;47.716;9.070;2024-03-23T12:42:48;96616.03;;;13.90;51.92
6514;BME280;3290;47.716;9.070;2024-03-23T12:45:14;96636.63;;;13.27;54.63
6514;BME280;3290;47.716;9.070;2024-03-23T12:47:39;96647.16;;;12.72;60.35
6514;BME280;3290;47.716;9.070;2024-03-23T12:50:05;96661.00;;;12.56;67.86
6514;BME280;3290;47.716;9.070;2024-03-23T12:52:31;96656.13;;;12.48;65.66
6514;BME280;3290;47.716;9.070;2024-03-23T12:54:57;96657.66;;;12.72;63.40
6514;BME280;3290;47.716;9.070;2024-03-23T12:57:26;96660.19;;;13.06;60.55
6514;BME280;3290;47.716;9.070;2024-03-23T12:59:52;96659.03;;;12.63;62.20
6514;BME280;3290;47.716;9.070;2024-03-23T13:02:21;96651.28;;;13.23;60.37
6514;BME280;3290;47.716;9.070;2024-03-23T13:04:51;96647.47;;;13.80;59.59
6514;BME280;3290;47.716;9.070;2024-03-23T13:07:17;96647.25;;;14.35;57.07
6514;BME280;3290;47.716;9.070;2024-03-23T13:09:42;96650.09;;;12.87;59.91
6514;BME280;3290;47.716;9.070;2024-03-23T13:12:08;96645.38;;;11.88;59.81
6514;BME280;3290;47.716;9.070;2024-03-23T13:14:33;96646.94;;;13.01;58.73
6514;BME280;3290;47.716;9.070;2024-03-23T13:16:59;96641.06;;;12.72;57.81
6514;BME280;3290;47.716;9.070;2024-03-23T13:19:24;96642.25;;;12.14;59.19
6514;BME280;3290;47.716;9.070;2024-03-23T13:21:55;96636.00;;;11.69;57.72
6514;BME280;3290;47.716;9.070;2024-03-23T13:24:22;96633.84;;;11.78;57.13
6514;BME280;3290;47.716;9.070;2024-03-23T13:26:49;96628.50;;;12.85;53.01
6514;BME280;3290;47.716;9.070;2024-03-23T13:29:15;96631.59;;;13.26;52.62
6514;BME280;3290;47.716;9.070;2024-03-23T13:31:40;96628.72;;;13.11;53.92
6514;BME280;3290;47.716;9.070;2024-03-23T13:34:05;96623.41;;;12.95;53.66
6514;BME280;3290;47.716;9.070;2024-03-23T13:36:31;96626.69;;;13.02;53.83
6514;BME280;3290;47.716;9.070;2024-03-23T13:38:56;96617.41;;;12.83;52.61
6514;BME280;3290;47.716;9.070;2024-03-23T13:41:21;96615.13;;;12.75;51.66
6514;BME280;3290;47.716;9.070;2024-03-23T13:43:47;96622.56;;;13.06;52.25
6514;BME280;3290;47.716;9.070;2024-03-23T13:46:12;96616.53;;;13.21;50.88
6514;BME280;3290;47.716;9.070;2024-03-23T13:48:37;96604.88;;;13.50;49.38
6514;BME280;3290;47.716;9.070;2024-03-23T13:51:03;96604.94;;;13.22;49.81
6514;BME280;3290;47.716;9.070;2024-03-23T13:53:30;96608.22;;;13.29;51.26
6514;BME280;3290;47.716;9.070;2024-03-23T13:55:55;96594.22;;;13.57;50.25
6514;BME280;3290;47.716;9.070;2024-03-23T13:58:21;96606.63;;;13.61;49.88
6514;BME280;3290;47.716;9.070;2024-03-23T14:00:47;96593.19;;;12.81;49.92
6514;BME280;3290;47.716;9.070;2024-03-23T14:03:13;96588.91;;;12.91;49.65
6514;BME280;3290;47.716;9.070;2024-03-23T14:05:39;96589.91;;;13.67;49.10
6514;BME280;3290;47.716;9.070;2024-03-23T14:08:09;96598.84;;;13.33;51.48
6514;BME280;3290;47.716;9.070;2024-03-23T14:10:34;96591.47;;;13.03;52.10
6514;BME280;3290;47.716;9.070;2024-03-23T14:13:03;96589.94;;;12.79;51.64
6514;BME280;3290;47.716;9.070;2024-03-23T14:15:29;96588.81;;;12.75;52.35
6514;BME280;3290;47.716;9.070;2024-03-23T14:17:55;96578.34;;;11.97;54.25
6514;BME280;3290;47.716;9.070;2024-03-23T14:20:21;96589.56;;;11.81;53.09
6514;BME280;3290;47.716;9.070;2024-03-23T14:22:47;96583.25;;;11.94;53.17
6514;BME280;3290;47.716;9.070;2024-03-23T14:25:12;96576.06;;;12.39;54.18
6514;BME280;3290;47.716;9.070;2024-03-23T14:27:38;96568.75;;;12.97;54.21
6514;BME280;3290;47.716;9.070;2024-03-23T14:30:04;96575.50;;;12.93;52.75
6514;BME280;3290;47.716;9.070;2024-03-23T14:32:33;96560.56;;;12.54;52.20